Time;durP1;ratioP1;P1;durP2;ratioP2;P2;SDS_P1;SDS_P2;PMS_P1;PMS_P2;Temp;Humidity;BMP_temperature;BMP_pressure;BME280_temperature;BME280_humidity;BME280_pressure;Samples;Min_cycle;Max_cycle;Signal;HPM_P1;HPM_P2
2024/03/26 00:04:32;;;;;;;10.27;4.18;;;;;;;4.42;67.47;98995.75;10264535;28;20062;-78
2024/03/26 00:09:32;;;;;;;9.10;3.92;;;;;;;4.39;66.79;98988.84;10256268;29;20039;-78
2024/03/26 00:14:33;;;;;;;7.95;4.13;;;;;;;4.33;66.79;98983.97;10263146;28;20126;-78
2024/03/26 00:19:34;;;;;;;8.93;3.78;;;;;;;4.40;66.92;98977.22;10256735;28;20047;-78
2024/03/26 00:24:35;;;;;;;7.93;3.42;;;;;;;4.40;66.43;98969.25;10255284;29;20047;-78
2024/03/26 00:29:35;;;;;;;8.50;3.38;;;;;;;4.38;66.32;98961.38;10244864;29;20345;-77
2024/03/26 00:34:36;;;;;;;8.55;3.42;;;;;;;4.37;66.50;98951.72;10235260;29;20422;-78
2024/03/26 00:39:37;;;;;;;7.18;3.45;;;;;;;4.32;66.61;98945.94;10248599;29;20062;-78
2024/03/26 00:44:37;;;;;;;10.18;4.75;;;;;;;4.32;66.16;98939.75;10234959;29;20058;-77
2024/03/26 00:49:38;;;;;;;7.18;3.25;;;;;;;4.33;65.97;98933.47;10252572;28;20039;-77
2024/03/26 00:54:39;;;;;;;11.30;3.08;;;;;;;4.34;64.90;98943.16;10248100;28;20331;-78
2024/03/26 00:59:40;;;;;;;6.68;2.95;;;;;;;4.37;64.07;98935.78;10253726;28;20051;-78
2024/03/26 01:04:40;;;;;;;8.35;2.50;;;;;;;4.42;63.30;98931.94;10265961;28;20058;-78
2024/03/26 01:09:41;;;;;;;7.88;3.35;;;;;;;4.54;62.75;98931.78;10229424;29;20048;-78
2024/03/26 01:14:42;;;;;;;7.38;2.85;;;;;;;4.62;62.29;98925.88;10252915;29;20043;-78
2024/03/26 01:19:42;;;;;;;7.72;2.75;;;;;;;4.53;62.81;98918.63;10254570;28;20043;-78
2024/03/26 01:24:43;;;;;;;7.47;3.22;;;;;;;4.45;63.27;98908.59;10254215;28;20055;-78
2024/03/26 01:29:44;;;;;;;9.40;3.85;;;;;;;4.43;63.60;98909.69;10254234;28;20074;-78
2024/03/26 01:34:44;;;;;;;10.02;3.60;;;;;;;4.42;63.86;98911.50;10250259;29;20051;-78
2024/03/26 01:39:46;;;;;;;5.50;2.85;;;;;;;4.41;63.92;98899.16;10255310;28;20081;-78
2024/03/26 01:44:46;;;;;;;9.15;3.17;;;;;;;4.39;64.03;98890.47;10265662;28;20510;-78
2024/03/26 01:49:48;;;;;;;15.95;3.78;;;;;;;4.38;64.36;98897.59;10240067;29;20070;-78
2024/03/26 01:54:49;;;;;;;9.20;3.50;;;;;;;4.34;64.50;98896.16;10280117;28;20051;-77
2024/03/26 01:59:52;;;;;;;13.48;3.65;;;;;;;4.20;64.85;98887.56;10269959;28;20122;-78
2024/03/26 02:04:52;;;;;;;8.75;3.63;;;;;;;4.14;65.26;98887.09;10260364;28;20040;-78
2024/03/26 02:09:53;;;;;;;8.05;3.85;;;;;;;4.10;65.30;98880.31;10273728;28;20054;-78
2024/03/26 02:14:54;;;;;;;12.68;4.60;;;;;;;4.02;65.46;98874.75;10261676;29;20459;-78
2024/03/26 02:19:55;;;;;;;6.43;3.92;;;;;;;4.05;65.67;98871.84;10275905;28;20043;-78
2024/03/26 02:24:55;;;;;;;9.95;3.05;;;;;;;3.93;65.74;98863.03;10262510;29;20043;-78
2024/03/26 02:29:56;;;;;;;5.63;2.60;;;;;;;3.97;65.67;98847.69;10262008;29;20467;-78
2024/03/26 02:34:57;;;;;;;9.52;3.17;;;;;;;3.97;65.79;98855.66;10247008;29;20530;-78
2024/03/26 02:39:58;;;;;;;6.85;3.05;;;;;;;4.01;65.78;98840.34;10262494;28;20047;-77
2024/03/26 02:44:58;;;;;;;5.50;3.05;;;;;;;3.91;65.83;98840.19;10281322;29;20047;-78
2024/03/26 02:49:59;;;;;;;11.35;4.28;;;;;;;3.88;65.66;98830.66;10277131;28;20047;-77
2024/03/26 02:55:00;;;;;;;8.00;3.08;;;;;;;3.93;65.39;98827.66;10250494;29;20058;-78
2024/03/26 03:00:00;;;;;;;11.30;3.10;;;;;;;3.91;65.27;98821.59;10274589;28;20041;-78
2024/03/26 03:05:01;;;;;;;5.88;2.92;;;;;;;4.00;64.79;98804.94;10277930;28;20063;-78
2024/03/26 03:10:03;;;;;;;9.13;3.13;;;;;;;4.01;64.73;98808.47;10257424;28;20044;-78
2024/03/26 03:21:26;;;;;;;8.27;3.63;;;;;;;4.05;64.50;98788.63;10256781;29;20070;-77
2024/03/26 03:26:27;;;;;;;6.22;2.80;;;;;;;4.00;64.62;98782.84;10258812;29;20045;-78
2024/03/26 03:31:29;;;;;;;10.02;2.83;;;;;;;4.01;64.76;98780.06;10256305;28;20036;-77
2024/03/26 03:36:30;;;;;;;6.80;3.10;;;;;;;3.95;64.92;98767.28;10293038;28;20047;-76
2024/03/26 03:41:30;;;;;;;7.35;2.60;;;;;;;4.07;64.61;98758.31;10278891;29;20259;-78
2024/03/26 03:46:31;;;;;;;6.88;2.35;;;;;;;4.13;64.30;98754.31;10258421;29;20141;-77
2024/03/26 03:51:32;;;;;;;7.20;3.22;;;;;;;4.25;64.00;98745.38;10241253;29;20094;-77
2024/03/26 03:56:33;;;;;;;6.38;2.65;;;;;;;4.18;64.22;98741.50;10257420;29;20039;-78
2024/03/26 04:01:33;;;;;;;5.43;2.50;;;;;;;4.26;63.83;98731.09;10266367;28;20355;-77
2024/03/26 04:06:34;;;;;;;8.95;2.78;;;;;;;4.21;63.76;98722.66;10248609;29;20051;-78
2024/03/26 04:11:36;;;;;;;14.32;3.08;;;;;;;4.28;63.76;98720.34;10242144;29;20047;-77
2024/03/26 04:16:36;;;;;;;6.47;3.13;;;;;;;4.22;63.78;98710.22;10238774;29;20505;-78
2024/03/26 04:21:37;;;;;;;4.80;3.00;;;;;;;4.09;64.49;98697.94;10267923;28;20098;-78
2024/03/26 04:26:38;;;;;;;7.28;2.63;;;;;;;4.21;64.25;98688.09;10270957;28;20044;-78
2024/03/26 04:31:39;;;;;;;6.65;2.42;;;;;;;4.13;64.66;98694.03;10256758;29;20734;-78
2024/03/26 04:36:39;;;;;;;7.80;2.45;;;;;;;4.15;65.00;98670.84;10255817;28;20094;-78
2024/03/26 04:41:40;;;;;;;9.82;3.28;;;;;;;4.18;64.82;98678.56;10249526;29;20035;-78
2024/03/26 04:46:44;;;;;;;6.25;2.58;;;;;;;4.15;64.42;98685.97;10254835;28;20047;-78
2024/03/26 04:51:45;;;;;;;9.75;2.92;;;;;;;4.18;64.12;98677.72;10249045;28;20979;-78
2024/03/26 04:56:45;;;;;;;10.02;3.15;;;;;;;4.28;63.83;98667.19;10281636;28;20090;-78
2024/03/26 05:01:46;;;;;;;6.90;2.63;;;;;;;4.38;63.25;98662.78;10283610;28;20035;-77
2024/03/26 05:06:47;;;;;;;5.03;2.65;;;;;;;4.37;63.12;98658.47;10272365;28;20071;-78
2024/03/26 05:11:49;;;;;;;7.90;2.53;;;;;;;4.38;63.36;98645.03;10262170;28;20122;-78
2024/03/26 05:16:49;;;;;;;12.38;3.33;;;;;;;4.26;63.95;98646.06;10254176;28;20061;-78
2024/03/26 05:21:50;;;;;;;8.32;2.65;;;;;;;4.12;64.00;98649.84;10252786;29;20044;-78
2024/03/26 05:26:51;;;;;;;6.13;3.08;;;;;;;4.23;63.83;98641.00;10266473;28;20055;-78
2024/03/26 05:31:51;;;;;;;10.52;3.00;;;;;;;4.18;64.00;98635.22;10238876;29;20098;-78
2024/03/26 05:36:52;;;;;;;7.60;3.53;;;;;;;4.26;63.98;98624.78;10280941;28;20051;-78
2024/03/26 05:41:53;;;;;;;10.52;3.40;;;;;;;4.16;64.82;98626.50;10237183;29;20111;-78
2024/03/26 05:46:54;;;;;;;8.10;2.80;;;;;;;4.26;64.49;98611.50;10256059;28;20039;-78
2024/03/26 05:51:55;;;;;;;6.85;3.00;;;;;;;4.18;64.36;98603.31;10274407;28;20057;-77
2024/03/26 05:56:56;;;;;;;10.02;3.70;;;;;;;4.26;64.68;98600.88;10229760;28;20138;-78
2024/03/26 06:01:56;;;;;;;7.30;3.13;;;;;;;4.32;64.63;98591.53;10260732;29;20043;-78
2024/03/26 06:06:57;;;;;;;8.43;3.33;;;;;;;4.31;64.65;98584.56;10280031;28;20051;-77
2024/03/26 06:11:58;;;;;;;7.68;3.50;;;;;;;4.55;64.39;98574.50;10259066;28;20051;-78
2024/03/26 06:16:59;;;;;;;6.90;3.33;;;;;;;4.50;64.37;98563.41;10261342;28;20458;-78
2024/03/26 06:22:00;;;;;;;5.07;3.08;;;;;;;4.61;63.33;98571.31;10271277;28;20066;-78
2024/03/26 06:27:00;;;;;;;11.25;3.40;;;;;;;4.60;63.28;98558.97;10259248;28;20047;-77
2024/03/26 06:32:01;;;;;;;7.72;3.05;;;;;;;4.57;63.24;98548.63;10274950;28;20063;-78
2024/03/26 06:37:03;;;;;;;7.75;2.90;;;;;;;4.65;62.46;98539.97;10271239;28;20444;-78
2024/03/26 06:42:03;;;;;;;5.23;3.33;;;;;;;4.67;62.14;98527.41;10267854;28;20545;-78
2024/03/26 06:47:04;;;;;;;12.25;3.38;;;;;;;4.95;61.69;98536.50;10257545;28;20150;-77
2024/03/26 06:52:06;;;;;;;9.07;3.70;;;;;;;5.15;60.63;98525.94;10262287;28;20051;-78
2024/03/26 06:57:07;;;;;;;8.67;3.10;;;;;;;5.48;59.46;98517.63;10258010;28;20047;-78
2024/03/26 07:02:08;;;;;;;11.10;3.25;;;;;;;5.09;59.80;98519.34;10278980;28;20043;-77
2024/03/26 07:07:09;;;;;;;4.57;3.23;;;;;;;5.10;60.12;98514.88;10281575;28;20043;-77
2024/03/26 07:12:11;;;;;;;7.85;3.42;;;;;;;5.14;59.85;98513.63;10261269;29;20295;-78
2024/03/26 07:17:12;;;;;;;7.10;2.92;;;;;;;5.28;60.09;98513.25;10266808;28;20098;-78
2024/03/26 07:22:13;;;;;;;5.72;3.55;;;;;;;5.33;59.39;98503.03;10245986;28;20051;-78
2024/03/26 07:27:13;;;;;;;7.32;2.92;;;;;;;5.27;59.94;98498.25;10258095;28;20515;-77
2024/03/26 07:32:14;;;;;;;5.70;3.22;;;;;;;5.57;58.69;98486.69;10241212;28;20090;-77
2024/03/26 07:37:15;;;;;;;9.18;2.78;;;;;;;5.72;59.34;98477.28;10247769;28;20059;-77
2024/03/26 07:42:18;;;;;;;6.53;3.10;;;;;;;6.04;57.43;98478.00;10253528;28;20107;-77
2024/03/26 07:47:18;;;;;;;5.57;2.67;;;;;;;6.29;55.95;98476.56;10234578;28;20047;-78
2024/03/26 07:52:19;;;;;;;6.68;3.15;;;;;;;6.63;54.71;98479.53;10248700;28;20047;-77
2024/03/26 07:57:20;;;;;;;8.75;2.80;;;;;;;6.94;54.59;98474.81;10238297;28;20040;-78
2024/03/26 08:02:21;;;;;;;7.53;2.83;;;;;;;7.26;53.70;98465.50;10235131;28;20047;-79
2024/03/26 08:07:22;;;;;;;4.15;2.70;;;;;;;8.00;53.02;98461.72;10254274;28;20054;-78
2024/03/26 08:12:22;;;;;;;4.72;2.72;;;;;;;7.88;51.24;98441.56;10273493;28;20055;-77
2024/03/26 08:17:24;;;;;;;4.35;2.65;;;;;;;8.14;50.77;98447.78;10288863;28;20850;-78
2024/03/26 08:22:25;;;;;;;5.18;2.53;;;;;;;7.65;50.91;98447.41;10267471;28;20077;-77
2024/03/26 08:27:26;;;;;;;4.03;2.17;;;;;;;8.10;50.32;98449.09;10258025;28;20063;-77
2024/03/26 08:32:30;;;;;;;10.98;3.25;;;;;;;8.26;50.51;98442.19;10265183;28;20565;-78
2024/03/26 08:37:30;;;;;;;4.05;2.80;;;;;;;8.66;49.30;98438.94;10267853;28;20039;-77
2024/03/26 08:42:31;;;;;;;6.47;2.30;;;;;;;8.79;48.48;98434.00;10263490;28;20047;-78
2024/03/26 08:47:33;;;;;;;6.35;2.90;;;;;;;8.87;47.76;98433.19;10252180;28;20043;-79
2024/03/26 08:52:34;;;;;;;5.63;2.60;;;;;;;8.87;48.12;98417.13;10264380;28;20648;-78
2024/03/26 08:57:35;;;;;;;9.60;2.67;;;;;;;8.78;48.19;98413.59;10258991;28;20054;-78
2024/03/26 09:02:35;;;;;;;5.10;2.90;;;;;;;9.17;47.55;98409.53;10246138;28;20043;-78
2024/03/26 09:07:36;;;;;;;3.85;2.40;;;;;;;9.44;46.91;98408.44;10263923;28;20058;-78
2024/03/26 09:12:37;;;;;;;7.75;2.85;;;;;;;9.04;46.94;98410.00;10243838;28;20174;-77
2024/03/26 09:17:38;;;;;;;3.53;2.42;;;;;;;8.52;47.54;98397.56;10253090;28;20101;-78
2024/03/26 09:22:41;;;;;;;3.08;2.78;;;;;;;8.77;48.41;98400.34;10260857;28;20086;-77
2024/03/26 09:27:41;;;;;;;7.18;2.75;;;;;;;9.01;48.19;98395.09;10258296;28;20049;-78
2024/03/26 09:32:42;;;;;;;3.60;2.58;;;;;;;8.88;48.22;98388.50;10237763;28;20043;-78
2024/03/26 09:37:44;;;;;;;6.38;2.67;;;;;;;9.81;47.23;98388.34;10248565;28;20082;-78
2024/03/26 09:42:44;;;;;;;5.33;3.17;;;;;;;9.68;47.28;98376.28;10269099;28;20051;-77
2024/03/26 09:47:48;;;;;;;6.07;2.63;;;;;;;9.88;46.63;98379.50;10260567;28;20512;-76
2024/03/26 09:52:49;;;;;;;5.05;2.80;;;;;;;9.71;46.62;98378.63;10253805;28;20544;-77
2024/03/26 09:57:50;;;;;;;3.43;2.67;;;;;;;9.75;46.73;98364.88;10264179;28;20062;-77
2024/03/26 10:02:53;;;;;;;4.78;2.92;;;;;;;10.41;46.74;98365.66;10245961;28;20047;-77
2024/03/26 10:07:55;;;;;;;5.05;3.13;;;;;;;10.61;46.38;98357.03;10249400;28;20046;-77
2024/03/26 10:12:56;;;;;;;3.10;2.70;;;;;;;10.45;46.06;98357.09;10258786;28;20043;-77
2024/03/26 10:17:57;;;;;;;5.28;2.80;;;;;;;10.16;47.23;98344.25;10265343;28;20035;-78
2024/03/26 10:22:59;;;;;;;5.25;3.50;;;;;;;10.46;46.73;98339.97;10272541;28;20036;-77
2024/03/26 10:28:01;;;;;;;4.00;2.10;;;;;;;10.36;46.15;98329.41;10273312;28;20039;-77
2024/03/26 10:33:03;;;;;;;;;;;;;;;10.26;46.63;98328.78;10275918;28;20047;-77
2024/03/26 10:38:11;;;;;;;5.57;3.10;;;;;;;10.50;47.22;98321.66;10270615;28;20378;-78
2024/03/26 10:43:12;;;;;;;7.35;2.70;;;;;;;10.65;47.23;98311.03;10237153;28;20054;-78
2024/03/26 10:48:15;;;;;;;4.68;3.10;;;;;;;10.28;47.72;98304.47;10262880;28;20049;-78
2024/03/26 10:53:17;;;;;;;;;;;;;;;10.33;47.37;98302.09;10267321;28;20502;-77
2024/03/26 10:58:17;;;;;;;5.70;2.50;;;;;;;10.48;47.66;98294.16;10251116;28;19930;-77
2024/03/26 11:03:19;;;;;;;5.45;2.80;;;;;;;10.41;47.95;98287.81;10271267;28;20118;-78
2024/03/26 11:08:20;;;;;;;4.33;2.53;;;;;;;10.43;47.70;98292.00;10273831;28;20038;-77
2024/03/26 11:13:25;;;;;;;4.93;2.45;;;;;;;10.23;47.79;98286.22;10249640;28;20043;-77
2024/03/26 11:18:27;;;;;;;5.43;2.67;;;;;;;10.34;47.94;98282.31;10237390;28;20110;-77
2024/03/26 11:23:34;;;;;;;3.42;2.38;;;;;;;10.67;46.57;98277.63;10267933;28;20047;-78
2024/03/26 11:28:36;;;;;;;6.75;2.33;;;;;;;10.16;46.61;98272.63;10256484;28;20124;-77
2024/03/26 11:33:37;;;;;;;6.37;2.53;;;;;;;10.31;46.97;98270.09;10266702;28;20051;-77
2024/03/26 11:38:38;;;;;;;5.38;2.10;;;;;;;10.25;46.58;98265.38;10267980;28;20038;-78
2024/03/26 11:43:40;;;;;;;4.18;2.28;;;;;;;10.52;46.56;98253.38;10259740;28;20443;-78
2024/03/26 11:48:41;;;;;;;4.73;2.40;;;;;;;10.95;45.92;98244.91;10264004;28;20459;-77
2024/03/26 11:53:41;;;;;;;3.15;2.20;;;;;;;11.14;45.25;98243.63;10239751;28;20050;-78
2024/03/26 11:58:42;;;;;;;7.65;2.97;;;;;;;11.96;44.06;98232.91;10245275;28;20458;-78
2024/03/26 12:03:54;;;;;;;2.92;2.30;;;;;;;12.47;43.17;98210.59;10245744;28;20061;-77
2024/03/26 12:08:58;;;;;;;5.20;2.27;;;;;;;12.52;42.99;98205.50;10264331;28;20035;-78
2024/03/26 12:13:58;;;;;;;5.93;2.53;;;;;;;12.23;43.28;98204.50;10250867;28;20406;-78
2024/03/26 12:19:00;;;;;;;3.47;2.30;;;;;;;12.16;44.45;98207.09;10246088;28;20039;-78
2024/03/26 12:24:01;;;;;;;5.23;3.50;;;;;;;11.76;44.81;98196.81;10260488;28;20113;-78
2024/03/26 12:29:01;;;;;;;3.40;2.33;;;;;;;12.19;44.34;98175.47;10266491;28;20058;-78
2024/03/26 12:34:08;;;;;;;2.38;2.05;;;;;;;12.66;44.06;98182.22;10255129;28;20126;-78
2024/03/26 12:39:10;;;;;;;5.10;2.38;;;;;;;12.41;43.73;98184.44;10279217;28;20047;-78
2024/03/26 12:44:13;;;;;;;5.00;2.93;;;;;;;11.79;44.67;98174.91;10269763;28;20051;-77
2024/03/26 12:49:18;;;;;;;7.38;2.95;;;;;;;11.71;45.22;98175.84;10265806;28;20106;-78
2024/03/26 12:54:18;;;;;;;3.35;2.30;;;;;;;11.58;45.86;98162.25;10265396;28;20048;-77
2024/03/26 12:59:19;;;;;;;4.28;2.88;;;;;;;11.50;46.30;98157.78;10226199;28;20043;-76
2024/03/26 13:04:20;;;;;;;5.43;2.72;;;;;;;11.83;45.96;98160.09;10261736;28;20516;-77
2024/03/26 13:09:20;;;;;;;4.90;3.05;;;;;;;11.85;46.11;98147.31;10261829;28;20569;-77
2024/03/26 13:14:21;;;;;;;5.25;2.65;;;;;;;12.06;47.08;98135.75;10258796;28;20480;-77
2024/03/26 13:19:22;;;;;;;4.03;2.45;;;;;;;12.10;44.91;98137.88;10222855;28;20051;-77
2024/03/26 13:24:24;;;;;;;4.82;2.67;;;;;;;12.25;45.75;98135.16;10253121;28;20051;-77
2024/03/26 13:29:26;;;;;;;3.90;2.35;;;;;;;12.32;44.35;98124.50;10260647;28;20047;-77
2024/03/26 13:34:27;;;;;;;4.68;2.20;;;;;;;12.86;43.23;98123.16;10252774;28;20047;-78
2024/03/26 13:39:28;;;;;;;4.47;2.30;;;;;;;12.73;43.37;98122.03;10269358;28;20098;-78
2024/03/26 13:44:29;;;;;;;4.53;2.80;;;;;;;13.00;43.33;98103.38;10268042;28;20094;-78
2024/03/26 13:49:29;;;;;;;4.35;2.70;;;;;;;13.57;42.40;98099.63;10286233;28;20106;-78
2024/03/26 13:54:30;;;;;;;3.63;2.40;;;;;;;14.30;41.23;98089.13;10272255;28;20043;-78
2024/03/26 13:59:31;;;;;;;3.20;2.17;;;;;;;13.38;41.49;98092.25;10276139;28;20110;-78
2024/03/26 14:04:32;;;;;;;3.42;2.00;;;;;;;12.90;42.64;98092.94;10262976;28;20655;-77
2024/03/26 14:09:33;;;;;;;5.13;2.33;;;;;;;12.88;44.23;98078.81;10250377;28;20047;-77
2024/03/26 14:14:35;;;;;;;4.60;2.63;;;;;;;12.71;44.42;98075.59;10258369;28;20050;-77
2024/03/26 14:19:36;;;;;;;;;;;;;;;12.14;44.83;98066.50;10265138;28;20050;-78
2024/03/26 14:24:37;;;;;;;4.78;2.63;;;;;;;12.04;45.53;98046.31;10263609;28;20352;-77
2024/03/26 14:29:37;;;;;;;3.53;2.67;;;;;;;12.96;44.85;98046.34;10258957;28;20074;-78
2024/03/26 14:34:39;;;;;;;3.13;2.30;;;;;;;12.41;44.83;98039.91;10287028;28;20153;-78
2024/03/26 14:39:39;;;;;;;4.88;2.70;;;;;;;12.58;45.65;98030.50;10278031;28;20043;-78
2024/03/26 14:44:40;;;;;;;3.33;2.72;;;;;;;12.71;45.78;98028.97;10269605;28;20039;-78
2024/03/26 14:49:44;;;;;;;4.85;2.60;;;;;;;12.42;45.19;98020.00;10270639;28;20035;-78
2024/03/26 14:54:45;;;;;;;4.18;2.22;;;;;;;11.88;44.27;98013.28;10264929;28;20058;-78
2024/03/26 14:59:46;;;;;;;4.82;2.30;;;;;;;12.23;44.85;98005.34;10256556;28;20054;-78
2024/03/26 15:04:47;;;;;;;3.92;1.98;;;;;;;12.30;44.18;97994.66;10259474;28;20049;-78
2024/03/26 15:09:48;;;;;;;2.92;2.10;;;;;;;12.27;45.26;97990.47;10278151;28;20042;-78
2024/03/26 15:14:49;;;;;;;2.85;2.00;;;;;;;12.38;44.98;97991.84;10261172;28;20043;-78
2024/03/26 15:19:50;;;;;;;4.25;2.55;;;;;;;12.24;45.13;97990.84;10268926;28;20046;-78
2024/03/26 15:24:51;;;;;;;4.45;2.78;;;;;;;12.41;44.55;97969.06;10278302;28;20051;-78
2024/03/26 15:35:11;;;;;;;4.63;2.78;;;;;;;11.96;45.63;97958.53;10255331;28;20047;-78
2024/03/26 15:40:12;;;;;;;2.83;2.17;;;;;;;12.02;45.56;97956.91;10282196;28;20122;-77
2024/03/26 15:45:13;;;;;;;4.07;2.70;;;;;;;12.01;45.95;97958.75;10278171;28;20055;-77
2024/03/26 15:50:13;;;;;;;7.32;2.47;;;;;;;11.93;46.21;97943.59;10273120;28;20058;-78
2024/03/26 15:55:14;;;;;;;3.85;2.13;;;;;;;12.07;46.57;97925.72;10254262;28;20043;-78
2024/03/26 16:00:15;;;;;;;6.20;3.17;;;;;;;12.12;46.08;97917.91;10265738;28;20062;-79
2024/03/26 16:05:16;;;;;;;4.75;2.53;;;;;;;12.33;46.10;97913.53;10266802;28;20051;-79
2024/03/26 16:10:18;;;;;;;2.95;2.33;;;;;;;12.36;45.76;97903.19;10253664;28;20042;-77
2024/03/26 16:15:19;;;;;;;2.50;2.30;;;;;;;12.24;46.14;97898.53;10264812;28;20039;-78
2024/03/26 16:20:20;;;;;;;3.63;2.38;;;;;;;11.92;46.26;97901.56;10266789;28;20487;-78
2024/03/26 16:25:23;;;;;;;2.88;2.28;;;;;;;11.75;45.61;97893.97;10279500;28;20039;-79
2024/03/26 16:30:25;;;;;;;2.30;2.10;;;;;;;11.71;45.79;97886.28;10249649;28;20039;-80
2024/03/26 16:35:25;;;;;;;2.95;2.10;;;;;;;11.52;46.21;97886.06;10271330;28;20075;-77
2024/03/26 16:40:26;;;;;;;3.50;2.13;;;;;;;11.39;47.00;97884.09;10256395;28;20075;-79
2024/03/26 16:45:27;;;;;;;3.60;2.47;;;;;;;11.54;47.07;97879.47;10257915;28;20075;-79
2024/03/26 16:50:28;;;;;;;4.35;2.88;;;;;;;11.46;47.06;97882.28;10275046;28;20446;-78
2024/03/26 16:55:28;;;;;;;3.08;2.65;;;;;;;11.35;47.14;97886.31;10263437;28;20047;-77
2024/03/26 17:00:30;;;;;;;4.15;2.88;;;;;;;11.24;47.32;97876.91;10258475;28;20036;-78
2024/03/26 17:05:30;;;;;;;9.35;2.88;;;;;;;11.17;47.77;97877.84;10262545;28;20044;-78
2024/03/26 17:10:31;;;;;;;4.82;3.55;;;;;;;11.16;48.12;97878.84;10244301;28;20632;-78
2024/03/26 17:15:32;;;;;;;5.53;3.70;;;;;;;11.08;48.92;97870.88;10256797;28;20047;-77
2024/03/26 17:20:33;;;;;;;4.10;3.33;;;;;;;10.89;49.31;97859.72;10272112;28;20126;-77
2024/03/26 17:25:35;;;;;;;7.57;3.15;;;;;;;10.84;50.10;97856.78;10246432;28;20043;-78
2024/03/26 17:30:37;;;;;;;4.10;3.23;;;;;;;10.76;50.40;97849.63;10243159;28;20036;-77
2024/03/26 17:35:38;;;;;;;5.20;3.60;;;;;;;10.65;50.49;97860.84;10252901;28;20599;-77
2024/03/26 17:40:40;;;;;;;7.43;3.88;;;;;;;10.60;51.00;97852.53;10239276;29;20473;-77
2024/03/26 17:45:41;;;;;;;7.43;4.50;;;;;;;10.51;51.49;97856.34;10267943;28;20093;-77
2024/03/26 17:50:42;;;;;;;7.00;4.40;;;;;;;10.42;51.71;97849.38;10265382;28;20066;-77
2024/03/26 17:55:42;;;;;;;7.75;4.60;;;;;;;10.32;52.18;97852.34;10267956;28;20081;-79
2024/03/26 18:00:43;;;;;;;6.28;4.97;;;;;;;10.23;52.55;97856.13;10251089;28;20031;-78
2024/03/26 18:05:44;;;;;;;5.25;2.90;;;;;;;10.07;53.22;97841.03;10292329;28;20058;-78
2024/03/26 18:10:55;;;;;;;4.45;2.97;;;;;;;9.96;53.91;97842.31;10274141;28;20023;-77
2024/03/26 18:15:59;;;;;;;3.58;3.13;;;;;;;9.87;54.54;97836.19;10302687;28;20050;-78
2024/03/26 18:21:01;;;;;;;5.70;3.65;;;;;;;9.80;55.22;97839.75;10284585;28;20059;-78
2024/03/26 18:26:03;;;;;;;;;;;;;;;9.77;55.79;97845.47;10255775;28;20043;-78
2024/03/26 18:31:07;;;;;;;6.88;4.05;;;;;;;9.70;56.42;97838.13;10278139;28;20317;-78
2024/03/26 18:36:08;;;;;;;7.47;4.28;;;;;;;9.67;57.09;97843.03;10274448;28;20446;-77
2024/03/26 18:41:09;;;;;;;7.85;4.35;;;;;;;9.74;57.44;97841.31;10271328;28;20051;-77
2024/03/26 18:46:14;;;;;;;6.57;4.50;;;;;;;9.72;57.42;97829.94;10255830;28;20043;-78
2024/03/26 18:51:15;;;;;;;5.22;4.30;;;;;;;9.67;57.80;97835.00;10280573;28;20426;-78
2024/03/26 18:56:17;;;;;;;5.53;4.53;;;;;;;9.66;57.69;97834.16;10272965;28;20055;-78
2024/03/26 19:01:22;;;;;;;7.60;5.05;;;;;;;9.64;57.52;97846.09;10288551;28;20054;-79
2024/03/26 19:06:23;;;;;;;10.48;5.32;;;;;;;9.60;57.40;97844.75;10291572;28;20050;-77
2024/03/26 19:11:24;;;;;;;9.60;5.00;;;;;;;9.50;57.72;97836.97;10286758;28;20062;-78
2024/03/26 19:16:24;;;;;;;8.50;5.63;;;;;;;9.40;58.31;97833.69;10272197;28;20047;-78
2024/03/26 19:21:25;;;;;;;7.32;4.90;;;;;;;9.33;58.69;97830.91;10271427;28;20070;-77
2024/03/26 19:26:26;;;;;;;8.80;5.53;;;;;;;9.36;59.02;97827.03;10247352;28;20051;-78
2024/03/26 19:31:27;;;;;;;8.85;5.30;;;;;;;9.37;59.04;97828.69;10262701;28;20042;-79
2024/03/26 19:36:28;;;;;;;8.73;5.88;;;;;;;9.41;58.82;97816.63;10256956;28;20506;-77
2024/03/26 19:41:29;;;;;;;10.90;6.75;;;;;;;9.38;59.07;97820.50;10248726;28;20537;-78
2024/03/26 19:46:29;;;;;;;12.68;7.28;;;;;;;9.34;59.58;97803.09;10256118;28;20082;-78
2024/03/26 19:51:30;;;;;;;10.13;7.32;;;;;;;9.54;58.97;97798.06;10272793;28;20035;-78
2024/03/26 19:56:31;;;;;;;12.27;7.68;;;;;;;9.50;59.09;97789.56;10244510;28;20047;-78
2024/03/26 20:01:32;;;;;;;14.00;8.70;;;;;;;9.67;58.81;97790.25;10237071;28;20560;-78
2024/03/26 20:06:33;;;;;;;12.02;8.30;;;;;;;9.66;58.82;97790.47;10261230;28;20125;-78
2024/03/26 20:11:34;;;;;;;11.27;8.45;;;;;;;9.70;58.60;97781.84;10263032;28;20074;-79
2024/03/26 20:16:34;;;;;;;13.32;8.70;;;;;;;9.64;58.84;97782.59;10298988;28;20062;-77
2024/03/26 20:21:35;;;;;;;20.38;11.18;;;;;;;9.45;59.45;97785.78;10283136;28;20051;-78
2024/03/26 20:26:36;;;;;;;14.73;9.43;;;;;;;9.39;59.44;97775.78;10266591;28;20066;-78
2024/03/26 20:31:37;;;;;;;10.57;8.10;;;;;;;9.32;59.71;97775.66;10264838;28;20039;-77
2024/03/26 20:36:38;;;;;;;11.75;8.20;;;;;;;9.28;59.93;97787.75;10274455;28;20442;-78
2024/03/26 20:41:39;;;;;;;17.00;7.78;;;;;;;9.11;60.34;97773.66;10279052;28;20050;-78
2024/03/26 20:46:39;;;;;;;15.70;8.60;;;;;;;9.05;60.87;97766.31;10281533;28;20568;-77
2024/03/26 20:51:40;;;;;;;16.50;10.02;;;;;;;8.83;62.04;97763.47;10306730;28;20046;-77
2024/03/26 20:56:41;;;;;;;12.43;9.02;;;;;;;8.88;61.82;97770.94;10279178;28;20035;-78
2024/03/26 21:01:42;;;;;;;15.20;9.15;;;;;;;8.79;62.11;97764.00;10252998;28;20051;-78
2024/03/26 21:06:42;;;;;;;14.65;9.65;;;;;;;8.63;62.77;97775.63;10286025;28;20062;-79
2024/03/26 21:11:43;;;;;;;15.75;10.13;;;;;;;8.49;63.58;97763.81;10252010;28;20035;-79
2024/03/26 21:16:45;;;;;;;15.38;9.80;;;;;;;8.37;64.00;97762.50;10267499;28;20571;-79
2024/03/26 21:21:45;;;;;;;14.03;9.83;;;;;;;8.33;64.45;97766.53;10277453;28;20164;-78
2024/03/26 21:26:47;;;;;;;17.00;10.75;;;;;;;8.32;64.30;97751.50;10221403;28;20519;-77
2024/03/26 21:31:47;;;;;;;12.38;8.73;;;;;;;8.31;64.18;97757.84;10261443;28;20051;-78
2024/03/26 21:36:48;;;;;;;11.32;8.57;;;;;;;8.29;63.98;97759.88;10251649;28;20067;-77
2024/03/26 21:41:49;;;;;;;15.45;9.10;;;;;;;8.23;64.39;97756.06;10238826;29;20035;-77
2024/03/26 21:46:49;;;;;;;14.73;9.10;;;;;;;8.29;63.94;97760.69;10261735;28;20146;-76
2024/03/26 21:51:50;;;;;;;13.73;9.20;;;;;;;8.26;63.78;97758.38;10251753;28;20039;-77
2024/03/26 21:56:51;;;;;;;14.75;9.93;;;;;;;8.29;63.48;97754.53;10270332;29;20705;-77
2024/03/26 22:01:52;;;;;;;13.85;9.60;;;;;;;8.29;63.54;97751.84;10268061;28;20039;-77
2024/03/26 22:06:53;;;;;;;16.45;9.75;;;;;;;8.24;63.50;97747.00;10248491;29;20103;-77
2024/03/26 22:11:53;;;;;;;12.95;8.30;;;;;;;8.20;63.31;97752.88;10251838;28;20078;-78
2024/03/26 22:16:54;;;;;;;11.77;8.55;;;;;;;8.24;63.05;97748.88;10265615;28;20035;-77
2024/03/26 22:21:55;;;;;;;15.18;9.35;;;;;;;8.22;62.78;97742.84;10280244;28;20031;-77
2024/03/26 22:26:56;;;;;;;16.95;9.65;;;;;;;8.20;62.78;97748.38;10272095;28;20059;-77
2024/03/26 22:31:57;;;;;;;13.43;9.05;;;;;;;8.15;62.96;97738.19;10281486;28;20475;-77
2024/03/26 22:36:59;;;;;;;10.95;8.18;;;;;;;8.19;62.55;97741.34;10261760;28;20058;-77
2024/03/26 22:42:01;;;;;;;13.30;8.88;;;;;;;8.20;62.38;97742.19;10273757;28;20043;-76
2024/03/26 22:47:02;;;;;;;13.10;8.40;;;;;;;8.13;62.66;97742.88;10275663;28;20055;-77
2024/03/26 22:52:03;;;;;;;16.48;9.88;;;;;;;8.07;62.96;97738.22;10270294;28;20036;-77
2024/03/26 22:57:04;;;;;;;12.63;8.38;;;;;;;8.06;62.90;97730.38;10255215;28;20094;-77
2024/03/26 23:02:05;;;;;;;19.40;10.13;;;;;;;8.06;62.92;97719.69;10262305;28;20106;-76
2024/03/26 23:07:06;;;;;;;16.67;10.30;;;;;;;8.11;62.62;97720.00;10249623;28;20411;-76
2024/03/26 23:12:07;;;;;;;13.57;8.68;;;;;;;8.13;62.14;97713.47;10249848;29;20035;-77
2024/03/26 23:17:08;;;;;;;14.18;8.63;;;;;;;8.20;62.27;97704.75;10268141;28;20075;-77
2024/03/26 23:22:10;;;;;;;14.35;8.75;;;;;;;8.22;62.04;97700.88;10276392;29;20345;-77
2024/03/26 23:27:11;;;;;;;16.48;9.02;;;;;;;8.26;61.95;97696.03;10266636;28;20047;-77
2024/03/26 23:32:12;;;;;;;12.13;8.20;;;;;;;8.25;61.74;97689.84;10229329;28;20150;-77
2024/03/26 23:37:12;;;;;;;15.00;9.88;;;;;;;8.21;61.91;97679.69;10250722;28;20123;-78
2024/03/26 23:42:13;;;;;;;12.65;9.30;;;;;;;8.11;62.46;97688.75;10238860;29;20043;-77